Stations météo

réclame
Mon MeteoGroup
Otranto, Italie (16334): Température de l'air & dewpoint: 15.02.2019 15:00:00 - 21.02.2019 15:00:00 (CET)Otranto, Italie (16334): Vitesse du vent: 15.02.2019 15:00:00 - 21.02.2019 15:00:00 (CET)Otranto, Italie (16334): Direction du vent: 15.02.2019 15:00:00 - 21.02.2019 15:00:00 (CET)Otranto, Italie (16334): reduced air pressure: 15.02.2019 15:00:00 - 21.02.2019 15:00:00 (CET)
Date & Time tt [°C] td [°C] ff [km/h] ff [knt] dd ppp [hPa]
21.02.2019 15:00:00 - - - - - -
21.02.2019 14:00:00 14,6 13,9 26 14 N 1024,3
21.02.2019 13:00:00 14,7 14,0 24 13 NNW 1024,5
21.02.2019 12:00:00 14,8 14,1 24 13 NNW 1024,9
21.02.2019 11:00:00 14,2 13,2 26 14 NNW 1025,1
21.02.2019 10:00:00 12,9 12,8 18 10 NW 1025,0
21.02.2019 09:00:00 11,9 11,9 18 10 NNW 1025,1
21.02.2019 08:00:00 10,1 10,1 16 9 NW 1024,8
21.02.2019 07:00:00 9,1 9,1 16 9 NW 1024,2
21.02.2019 06:00:00 8,8 8,8 16 9 NW 1024,0
21.02.2019 05:00:00 9,0 9,0 13 7 NW 1023,9
21.02.2019 04:00:00 8,9 8,9 13 7 NW 1023,6
21.02.2019 03:00:00 9,4 9,4 11 6 NNW 1023,7
21.02.2019 02:00:00 9,2 9,2 13 7 NNW 1023,9
21.02.2019 01:00:00 9,3 9,3 15 8 N 1023,6
21.02.2019 00:00:00 9,1 9,1 13 7 NNW 1023,7
20.02.2019 23:00:00 8,7 8,7 13 7 NNW 1023,7
20.02.2019 22:00:00 9,6 9,6 13 7 NNW 1023,7
20.02.2019 21:00:00 9,7 9,7 13 7 NNW 1023,6
20.02.2019 20:00:00 9,7 9,7 13 7 NNW 1023,4
20.02.2019 19:00:00 10,0 10,0 11 6 NNW 1023,1
20.02.2019 18:00:00 11,5 10,7 13 7 N 1022,5
20.02.2019 17:00:00 12,7 11,7 15 8 N 1022,0
20.02.2019 16:00:00 13,6 12,6 18 10 N 1022,1
20.02.2019 15:00:00 13,7 13,6 16 9 N 1022,1
20.02.2019 14:00:00 13,9 13,8 22 12 NNW 1022,0
20.02.2019 13:00:00 14,1 14,0 16 9 N 1022,4
20.02.2019 12:00:00 14,2 14,0 13 7 NNE 1023,0
20.02.2019 11:00:00 13,7 13,6 9 5 NNE 1023,2
20.02.2019 10:00:00 13,1 13,0 8 4 N 1023,0
20.02.2019 09:00:00 12,2 12,2 4 2 N 1022,9
20.02.2019 08:00:00 9,5 9,5 4 2 NNW 1022,6
20.02.2019 07:00:00 7,9 7,9 5 3 NW 1022,0
20.02.2019 06:00:00 8,5 8,5 5 3 NW 1021,6
20.02.2019 05:00:00 8,7 8,7 5 3 NW 1021,6
20.02.2019 04:00:00 9,1 9,1 5 3 NNW 1021,5
20.02.2019 03:00:00 9,6 9,6 4 2 NNW 1021,7
20.02.2019 02:00:00 10,1 10,1 0 0 N 1022,0
20.02.2019 01:00:00 9,4 9,4 2 1 W 1022,0
20.02.2019 00:00:00 9,7 9,7 5 3 WSW 1021,9
19.02.2019 23:00:00 10,5 10,5 8 4 SW 1021,8
19.02.2019 22:00:00 10,5 10,5 5 3 WSW 1022,0
19.02.2019 21:00:00 10,5 10,5 5 3 SSW 1022,0
19.02.2019 20:00:00 11,0 11,0 4 2 SW 1021,8
19.02.2019 19:00:00 11,6 11,6 9 5 S 1021,6
19.02.2019 18:00:00 12,2 12,2 9 5 S 1021,5
19.02.2019 17:00:00 13,9 13,2 13 7 S 1021,3
19.02.2019 16:00:00 14,7 13,4 16 9 S 1021,4
19.02.2019 15:00:00 15,1 13,6 16 9 S 1021,6
19.02.2019 14:00:00 15,7 15,0 13 7 S 1021,9
19.02.2019 13:00:00 16,0 14,5 9 5 SSE 1022,3
19.02.2019 12:00:00 15,0 14,3 11 6 SSW 1022,9
19.02.2019 11:00:00 14,9 14,2 8 4 S 1023,1
19.02.2019 10:00:00 14,3 14,1 5 3 SSE 1023,0
19.02.2019 09:00:00 13,4 13,3 4 2 SE 1023,0
19.02.2019 08:00:00 11,1 11,1 0 0 N 1022,9
19.02.2019 07:00:00 8,4 8,4 2 1 SSE 1022,7
19.02.2019 06:00:00 8,8 8,8 2 1 SSW 1022,4
19.02.2019 05:00:00 9,2 9,2 4 2 SW 1022,3
19.02.2019 04:00:00 9,5 9,5 5 3 WSW 1022,2
19.02.2019 03:00:00 9,5 9,5 8 4 WSW 1022,6
19.02.2019 02:00:00 9,5 9,5 8 4 WSW 1023,1
19.02.2019 01:00:00 8,2 7,4 5 3 WSW 1023,5
19.02.2019 00:00:00 8,9 8,9 5 3 SW 1023,6
18.02.2019 23:00:00 8,9 8,9 4 2 WSW 1023,5
18.02.2019 22:00:00 9,7 9,7 2 1 SW 1023,6
18.02.2019 21:00:00 10,5 10,5 2 1 SSW 1023,5
18.02.2019 20:00:00 10,2 9,4 4 2 SW 1023,5
18.02.2019 19:00:00 10,7 9,9 0 0 N 1023,6
18.02.2019 18:00:00 12,1 11,2 2 1 NE 1023,1
18.02.2019 17:00:00 13,3 12,3 2 1 NE 1023,0
18.02.2019 16:00:00 13,9 12,9 4 2 E 1023,3
18.02.2019 15:00:00 14,3 13,3 5 3 NNE 1023,4
18.02.2019 14:00:00 14,6 13,9 8 4 ENE 1023,6
18.02.2019 13:00:00 14,3 13,6 9 5 ENE 1024,3
18.02.2019 12:00:00 14,2 13,2 9 5 E 1024,7
18.02.2019 11:00:00 13,9 13,7 5 3 NNE 1025,0
18.02.2019 10:00:00 12,8 12,8 8 4 N 1025,0
18.02.2019 09:00:00 11,0 11,0 5 3 NW 1025,2
18.02.2019 08:00:00 8,4 8,4 8 4 WNW 1025,3
18.02.2019 07:00:00 7,5 7,5 8 4 NW 1024,9
18.02.2019 06:00:00 7,4 7,4 9 5 NW 1024,6
18.02.2019 05:00:00 7,6 7,6 9 5 WNW 1024,6
18.02.2019 04:00:00 7,5 7,5 9 5 WNW 1024,6
18.02.2019 03:00:00 7,4 7,4 9 5 WNW 1024,8
18.02.2019 02:00:00 7,4 7,4 11 6 NW 1025,4
18.02.2019 01:00:00 7,4 7,4 9 5 NNW 1025,5
18.02.2019 00:00:00 8,1 8,1 11 6 NW 1025,9
17.02.2019 23:00:00 8,4 8,4 9 5 NNW 1025,9
17.02.2019 22:00:00 8,8 8,8 11 6 NNW 1026,2
17.02.2019 21:00:00 8,8 8,8 9 5 NW 1026,1
17.02.2019 20:00:00 9,1 9,1 9 5 NNW 1025,9
17.02.2019 19:00:00 10,2 10,2 13 7 NW 1025,8
17.02.2019 18:00:00 11,3 10,5 15 8 NNW 1025,6
17.02.2019 17:00:00 12,9 11,9 16 9 NNW 1025,4
17.02.2019 16:00:00 13,7 13,0 15 8 N 1025,4
17.02.2019 15:00:00 13,9 13,2 18 10 NNW 1025,7
17.02.2019 14:00:00 13,9 13,2 21 11 N 1025,8
17.02.2019 13:00:00 14,5 13,8 22 12 N 1026,2
17.02.2019 12:00:00 14,4 13,7 22 12 N 1026,6
17.02.2019 11:00:00 14,0 13,0 18 10 N 1027,0
17.02.2019 10:00:00 11,9 11,9 22 12 NNW 1027,0
17.02.2019 09:00:00 10,5 10,5 21 11 NW 1027,0
17.02.2019 08:00:00 8,3 8,3 16 9 NNW 1027,1
17.02.2019 07:00:00 7,3 7,3 16 9 NNW 1026,9
17.02.2019 06:00:00 7,4 7,4 15 8 NW 1026,8
17.02.2019 05:00:00 6,9 6,9 16 9 NW 1026,7
17.02.2019 04:00:00 7,8 7,8 13 7 NW 1026,6
17.02.2019 03:00:00 7,8 7,2 13 7 NNW 1026,7
17.02.2019 02:00:00 7,2 6,6 13 7 NW 1027,1
17.02.2019 01:00:00 7,2 6,7 9 5 NW 1027,2
17.02.2019 00:00:00 8,6 7,4 13 7 NNW 1027,1
16.02.2019 23:00:00 8,8 8,3 16 9 NNW 1027,3
16.02.2019 22:00:00 9,2 8,1 16 9 NNW 1027,5
16.02.2019 21:00:00 8,7 7,1 13 7 NNW 1027,4
16.02.2019 20:00:00 10,5 8,9 21 11 N 1027,2
16.02.2019 19:00:00 10,5 8,4 22 12 N 1027,2
16.02.2019 18:00:00 11,2 8,7 24 13 NNW 1026,9
16.02.2019 17:00:00 11,9 9,3 18 10 NNE 1026,4
16.02.2019 16:00:00 12,1 8,9 22 12 N 1026,5
16.02.2019 15:00:00 12,8 9,0 18 10 N 1026,7
16.02.2019 14:00:00 12,9 8,9 15 8 NNE 1026,6
16.02.2019 13:00:00 12,4 8,6 21 11 NE 1026,9
16.02.2019 12:00:00 11,9 8,5 21 11 N 1027,3
16.02.2019 11:00:00 11,7 7,9 24 13 N 1027,3
16.02.2019 10:00:00 11,2 7,7 21 11 NNE 1027,3
16.02.2019 09:00:00 11,0 7,1 16 9 N 1027,0
16.02.2019 08:00:00 10,5 6,4 21 11 NNE 1026,6
16.02.2019 07:00:00 10,0 6,7 15 8 NNE 1025,7
16.02.2019 06:00:00 9,7 6,7 16 9 NNE 1025,2
16.02.2019 05:00:00 9,5 5,6 16 9 NNE 1025,2
16.02.2019 04:00:00 9,7 5,8 18 10 NNE 1025,1
16.02.2019 03:00:00 9,7 5,4 18 10 NNE 1025,4
16.02.2019 02:00:00 9,7 5,6 15 8 NNE 1025,3
16.02.2019 01:00:00 9,8 5,7 18 10 NNE 1025,5
16.02.2019 00:00:00 10,5 5,8 24 13 NE 1025,5
15.02.2019 23:00:00 10,8 5,9 24 13 NE 1025,1
15.02.2019 22:00:00 10,9 6,0 22 12 NNE 1024,7
15.02.2019 21:00:00 11,3 7,4 21 11 NNE 1024,3
15.02.2019 20:00:00 11,5 6,8 22 12 NNE 1023,7
15.02.2019 19:00:00 11,7 7,0 22 12 NE 1023,7
15.02.2019 18:00:00 11,2 7,5 24 13 NE 1023,4
15.02.2019 17:00:00 11,6 6,7 21 11 NNE 1022,9
15.02.2019 16:00:00 12,2 7,5 21 11 N 1022,4
15.02.2019 15:00:00 12,5 6,5 21 11 NNE 1022,4

tt = Température de l'air
td = dewpoint
ff = Vitesse du vent
dd = Direction du vent
ppp = reduced air pressure

stations d'obs. à proximité